createdAt,value
2023-02-06T00:03:51.687Z,101608.41
2023-02-06T00:07:54.778Z,101611.41
2023-02-06T00:11:56.222Z,101599.44
2023-02-06T00:15:57.702Z,101596.97
2023-02-06T00:19:59.158Z,101596.09
2023-02-06T00:24:03.386Z,101595.22
2023-02-06T00:28:05.343Z,101596.09
2023-02-06T00:32:06.849Z,101595.59
2023-02-06T00:36:09.730Z,101585.25
2023-02-06T00:40:12.832Z,101578.75
2023-02-06T00:44:14.255Z,101580.78
2023-02-06T00:48:15.693Z,101583.44
2023-02-06T00:52:17.160Z,101581.13
2023-02-06T00:56:20.084Z,101585.69
2023-02-06T01:00:21.709Z,101587.16
2023-02-06T01:04:23.212Z,101589.63
2023-02-06T01:08:24.745Z,101594.34
2023-02-06T01:12:27.531Z,101601.25
2023-02-06T01:16:29.077Z,101592.94
2023-02-06T01:20:30.742Z,101590.03
2023-02-06T01:24:32.403Z,101582.66
2023-02-06T01:28:37.110Z,101567.00
2023-02-06T01:32:40.305Z,101574.75
2023-02-06T01:36:41.809Z,101583.88
2023-02-06T01:40:43.942Z,101585.38
2023-02-06T01:44:46.756Z,101590.19
2023-02-06T01:48:51.463Z,101599.66
2023-02-06T01:52:53.236Z,101609.63
2023-02-06T01:56:58.870Z,101607.09
2023-02-06T02:01:02.706Z,101611.91
2023-02-06T02:05:08.399Z,101631.16
2023-02-06T02:09:09.856Z,101645.09
2023-02-06T02:13:11.343Z,101624.38
2023-02-06T02:17:30.608Z,101609.34
2023-02-06T02:22:08.262Z,101605.53
2023-02-06T02:26:27.066Z,101609.50
2023-02-06T02:31:05.090Z,101589.53
2023-02-06T02:35:22.258Z,101576.13
2023-02-06T02:39:34.633Z,101554.81
2023-02-06T02:43:42.820Z,101544.84
2023-02-06T02:47:49.517Z,101530.06
2023-02-06T02:51:53.578Z,101528.34
2023-02-06T02:55:55.153Z,101529.22
2023-02-06T02:59:59.658Z,101530.41
2023-02-06T03:04:06.695Z,101531.97
2023-02-06T03:08:15.875Z,101520.44
2023-02-06T03:12:23.126Z,101523.00
2023-02-06T03:16:29.814Z,101509.03
2023-02-06T03:20:32.602Z,101504.28
2023-02-06T03:24:39.263Z,101524.91
2023-02-06T03:28:44.776Z,101508.31
2023-02-06T03:32:53.379Z,101508.75
2023-02-06T03:36:55.034Z,101510.88
2023-02-06T03:41:00.092Z,101510.13
2023-02-06T03:45:05.759Z,101521.31
2023-02-06T03:49:09.514Z,101540.19
2023-02-06T03:53:12.099Z,101530.41
2023-02-06T03:57:17.485Z,101523.69
2023-02-06T04:01:19.194Z,101516.31
2023-02-06T04:05:20.762Z,101515.25
2023-02-06T04:09:22.273Z,101512.78
2023-02-06T04:13:25.089Z,101507.53
2023-02-06T04:17:43.060Z,101509.88
2023-02-06T04:21:48.376Z,101506.91
2023-02-06T04:25:49.816Z,101505.09
2023-02-06T04:29:52.640Z,101511.28
2023-02-06T04:33:54.095Z,101516.16
2023-02-06T04:37:55.851Z,101510.63
2023-02-06T04:41:57.308Z,101522.81
2023-02-06T04:46:00.216Z,101538.81
2023-02-06T04:50:02.836Z,101540.38
2023-02-06T04:54:06.169Z,101550.50
2023-02-06T04:58:07.966Z,101550.34
2023-02-06T05:02:10.742Z,101552.53
2023-02-06T05:06:12.439Z,101549.88
2023-02-06T05:10:14.167Z,101555.00
2023-02-06T05:14:15.626Z,101543.09
2023-02-06T05:18:18.645Z,101537.16
2023-02-06T05:22:20.094Z,101522.88
2023-02-06T05:26:21.541Z,101514.47
2023-02-06T05:30:23.402Z,101512.09
2023-02-06T05:34:26.658Z,101533.25
2023-02-06T05:38:28.083Z,101546.72
2023-02-06T05:42:29.587Z,101536.41
2023-02-06T05:46:31.132Z,101542.91
2023-02-06T05:50:33.966Z,101534.88
2023-02-06T05:54:35.527Z,101521.03
2023-02-06T05:58:37.123Z,101534.88
2023-02-06T06:02:39.177Z,101529.31
2023-02-06T06:06:41.986Z,101526.38
2023-02-06T06:10:43.473Z,101522.44
2023-02-06T06:14:44.928Z,101520.25
2023-02-06T06:18:46.368Z,101514.94
2023-02-06T06:22:49.156Z,101522.56
2023-02-06T06:26:50.780Z,101527.00
2023-02-06T06:31:00.337Z,101530.09
2023-02-06T06:35:01.813Z,101528.63
2023-02-06T06:39:04.654Z,101533.88
2023-02-06T06:43:06.128Z,101532.84
2023-02-06T06:47:07.733Z,101530.50
2023-02-06T06:51:09.379Z,101530.09
2023-02-06T06:55:12.327Z,101525.91
2023-02-06T06:59:13.893Z,101517.66
2023-02-06T07:03:15.473Z,101521.28
2023-02-06T07:07:17.166Z,101530.09
2023-02-06T07:11:20.061Z,101529.88
2023-02-06T07:15:21.614Z,101520.50
2023-02-06T07:19:23.127Z,101517.53
2023-02-06T07:23:24.700Z,101519.91
2023-02-06T07:27:27.621Z,101515.41
2023-02-06T07:31:29.144Z,101516.16
2023-02-06T07:35:30.680Z,101512.84
2023-02-06T07:39:32.242Z,101508.78
2023-02-06T07:43:35.109Z,101515.00
2023-02-06T07:47:36.601Z,101511.13
2023-02-06T07:51:38.121Z,101509.56
2023-02-06T07:55:39.644Z,101509.63
2023-02-06T07:59:42.443Z,101508.47
2023-02-06T08:03:43.999Z,101521.41
2023-02-06T08:07:45.555Z,101513.47
2023-02-06T08:11:47.148Z,101515.25
2023-02-06T08:15:49.977Z,101506.34
2023-02-06T08:19:51.446Z,101503.00
2023-02-06T08:23:56.565Z,101507.19
2023-02-06T08:27:58.067Z,101511.63
2023-02-06T08:32:00.881Z,101516.94
2023-02-06T08:36:02.460Z,101525.97
2023-02-06T08:40:04.803Z,101525.69
2023-02-06T08:44:08.260Z,101513.41
2023-02-06T08:48:11.218Z,101511.41
2023-02-06T08:52:12.685Z,101496.63
2023-02-06T08:56:14.575Z,101495.03
2023-02-06T09:00:17.185Z,101499.41
2023-02-06T09:04:20.638Z,101484.78
2023-02-06T09:08:22.087Z,101476.94
2023-02-06T09:12:23.564Z,101465.50
2023-02-06T09:16:26.718Z,101459.75
2023-02-06T09:20:29.531Z,101471.06
2023-02-06T09:24:31.191Z,101476.63
2023-02-06T09:28:32.880Z,101478.44
2023-02-06T09:32:34.362Z,101473.50
2023-02-06T09:36:37.205Z,101476.91
2023-02-06T09:40:38.725Z,101484.63
2023-02-06T09:44:43.834Z,101499.56
2023-02-06T09:48:45.352Z,101493.94
2023-02-06T09:52:57.981Z,101503.84
2023-02-06T09:57:06.240Z,101501.78
2023-02-06T10:01:18.197Z,101501.78
2023-02-06T10:05:25.078Z,101504.88
2023-02-06T10:09:37.084Z,101493.75
2023-02-06T10:13:44.199Z,101486.19
2023-02-06T10:17:51.465Z,101477.88
2023-02-06T10:21:57.904Z,101475.16
2023-02-06T10:26:05.885Z,101473.22
2023-02-06T10:30:15.748Z,101465.88
2023-02-06T10:34:31.356Z,101472.19
2023-02-06T10:39:08.396Z,101470.50
2023-02-06T10:43:22.963Z,101473.69
2023-02-06T10:47:33.553Z,101469.78
2023-02-06T10:51:37.835Z,101479.06
2023-02-06T10:55:49.171Z,101494.88
2023-02-06T10:59:56.565Z,101490.47
2023-02-06T11:04:03.592Z,101478.25
2023-02-06T11:08:13.685Z,101479.53
2023-02-06T11:12:25.436Z,101474.53
2023-02-06T11:16:29.091Z,101464.41
2023-02-06T11:20:33.553Z,101446.84
2023-02-06T11:24:36.400Z,101436.56
2023-02-06T11:28:41.305Z,101444.84
2023-02-06T11:32:55.750Z,101445.94
2023-02-06T11:37:07.149Z,101460.94
2023-02-06T11:41:18.346Z,101459.63
2023-02-06T11:45:25.291Z,101467.50
2023-02-06T11:49:28.881Z,101458.00
2023-02-06T11:53:30.544Z,101458.75
2023-02-06T11:57:33.776Z,101463.75
2023-02-06T12:01:43.006Z,101475.66
2023-02-06T12:05:46.046Z,101463.22
2023-02-06T12:09:47.655Z,101459.03
2023-02-06T12:13:54.588Z,101458.06
2023-02-06T12:18:01.874Z,101457.44
2023-02-06T12:22:12.248Z,101459.03
2023-02-06T12:26:17.813Z,101457.81
2023-02-06T12:30:30.287Z,101452.19
2023-02-06T12:34:34.885Z,101450.25
2023-02-06T12:38:41.589Z,101442.66
2023-02-06T12:42:47.483Z,101433.50
2023-02-06T12:46:55.955Z,101440.97
2023-02-06T12:51:07.936Z,101426.03
2023-02-06T12:55:19.758Z,101426.63
2023-02-06T12:59:58.655Z,101435.78
2023-02-06T13:04:02.998Z,101427.97
2023-02-06T13:08:08.736Z,101421.84
2023-02-06T13:12:15.783Z,101414.34
2023-02-06T13:16:17.363Z,101414.34
2023-02-06T13:20:19.948Z,101418.94
2023-02-06T13:24:21.479Z,101417.94
2023-02-06T13:28:46.569Z,101427.94
2023-02-06T13:32:48.658Z,101420.09
2023-02-06T13:36:53.270Z,101413.34
2023-02-06T13:41:29.908Z,101426.31
2023-02-06T13:45:37.517Z,101424.78
2023-02-06T13:50:15.438Z,101428.13
2023-02-06T13:54:53.451Z,101432.63
2023-02-06T13:58:56.615Z,101441.13
2023-02-06T14:03:06.326Z,101462.28
2023-02-06T14:07:30.390Z,101462.19
2023-02-06T14:11:49.164Z,101451.59
2023-02-06T14:15:58.386Z,101451.38
2023-02-06T14:20:10.119Z,101460.69
2023-02-06T14:24:26.908Z,101468.53
2023-02-06T14:28:36.332Z,101472.44
2023-02-06T14:32:46.024Z,101479.66
2023-02-06T14:37:06.868Z,101473.41
2023-02-06T14:41:09.451Z,101473.94
2023-02-06T14:45:24.674Z,101481.03
2023-02-06T14:49:31.790Z,101494.59
2023-02-06T14:53:37.001Z,101487.88
2023-02-06T14:57:38.598Z,101501.69
2023-02-06T15:01:41.350Z,101505.72
2023-02-06T15:05:43.640Z,101511.31
2023-02-06T15:09:56.012Z,101513.00
2023-02-06T15:13:58.018Z,101529.38
2023-02-06T15:18:01.320Z,101530.94
2023-02-06T15:22:06.362Z,101541.97
2023-02-06T15:26:22.148Z,101555.13
2023-02-06T15:30:26.033Z,101559.56
2023-02-06T15:34:27.956Z,101561.66
2023-02-06T15:38:32.373Z,101585.09
2023-02-06T15:42:36.463Z,101582.34
2023-02-06T15:46:38.657Z,101586.44
2023-02-06T15:50:40.112Z,101591.22
2023-02-06T15:54:41.974Z,101593.19
2023-02-06T15:58:45.742Z,101600.47
2023-02-06T16:02:47.316Z,101605.22
2023-02-06T16:07:00.468Z,101615.34
2023-02-06T16:11:05.368Z,101627.53
2023-02-06T16:15:27.307Z,101621.44
2023-02-06T16:19:46.865Z,101624.75
2023-02-06T16:23:50.542Z,101623.06
2023-02-06T16:27:52.947Z,101625.59
2023-02-06T16:32:01.001Z,101631.75
2023-02-06T16:36:02.440Z,101639.19
2023-02-06T16:40:04.389Z,101631.66
2023-02-06T16:44:11.696Z,101626.31
2023-02-06T16:48:16.872Z,101645.13
2023-02-06T16:52:21.957Z,101648.19
2023-02-06T16:56:23.576Z,101649.94
2023-02-06T17:00:26.824Z,101641.63
2023-02-06T17:04:30.067Z,101644.31
2023-02-06T17:08:36.949Z,101649.13
2023-02-06T17:12:38.515Z,101654.78
2023-02-06T17:16:39.965Z,101651.66
2023-02-06T17:20:45.090Z,101655.16
2023-02-06T17:24:46.600Z,101668.50
2023-02-06T17:28:48.988Z,101685.38
2023-02-06T17:32:50.412Z,101685.81
2023-02-06T17:36:54.205Z,101695.44
2023-02-06T17:40:55.648Z,101688.94
2023-02-06T17:44:57.075Z,101680.91
2023-02-06T17:48:58.517Z,101683.19
2023-02-06T17:53:01.313Z,101689.22
2023-02-06T17:57:02.897Z,101695.38
2023-02-06T18:01:05.540Z,101693.56
2023-02-06T18:05:07.408Z,101696.22
2023-02-06T18:09:10.207Z,101688.66
2023-02-06T18:13:11.681Z,101704.50
2023-02-06T18:17:14.220Z,101701.59
2023-02-06T18:21:16.557Z,101710.00
2023-02-06T18:25:19.381Z,101704.00
2023-02-06T18:29:20.839Z,101714.09
2023-02-06T18:33:22.304Z,101705.84
2023-02-06T18:37:23.791Z,101706.13
2023-02-06T18:41:26.586Z,101709.19
2023-02-06T18:45:28.019Z,101716.13
2023-02-06T18:49:29.533Z,101702.47
2023-02-06T18:53:30.961Z,101705.00
2023-02-06T18:57:34.343Z,101701.38
2023-02-06T19:01:35.856Z,101696.47
2023-02-06T19:05:37.348Z,101693.63
2023-02-06T19:09:39.233Z,101700.84
2023-02-06T19:13:42.075Z,101691.72
2023-02-06T19:17:43.909Z,101698.97
2023-02-06T19:21:45.767Z,101698.38
2023-02-06T19:25:47.222Z,101702.91
2023-02-06T19:29:49.998Z,101702.41
2023-02-06T19:33:53.429Z,101721.34
2023-02-06T19:37:54.892Z,101730.03
2023-02-06T19:41:56.335Z,101736.22
2023-02-06T19:46:02.736Z,101757.50
2023-02-06T19:50:04.973Z,101770.88
2023-02-06T19:54:06.717Z,101762.53
2023-02-06T19:58:08.152Z,101767.94
2023-02-06T20:02:14.174Z,101790.97
2023-02-06T20:06:16.229Z,101785.44
2023-02-06T20:10:17.701Z,101793.91
2023-02-06T20:14:20.165Z,101813.38
2023-02-06T20:18:22.974Z,101805.56
2023-02-06T20:22:24.413Z,101808.16
2023-02-06T20:26:28.770Z,101830.69
2023-02-06T20:30:30.962Z,101828.06
2023-02-06T20:34:35.104Z,101837.88
2023-02-06T20:38:37.164Z,101837.72
2023-02-06T20:42:38.643Z,101821.50
2023-02-06T20:46:41.440Z,101811.72
2023-02-06T20:50:44.237Z,101797.44
2023-02-06T20:54:45.922Z,101813.78
2023-02-06T20:58:48.569Z,101800.91
2023-02-06T21:02:52.024Z,101796.31
2023-02-06T21:06:55.766Z,101801.03
2023-02-06T21:10:57.222Z,101812.38
2023-02-06T21:14:58.711Z,101810.94
2023-02-06T21:19:01.339Z,101825.81
2023-02-06T21:23:04.160Z,101824.41
2023-02-06T21:27:05.614Z,101821.28
2023-02-06T21:31:09.327Z,101818.13
2023-02-06T21:35:10.934Z,101809.13
2023-02-06T21:39:16.377Z,101812.41
2023-02-06T21:43:18.068Z,101809.66
2023-02-06T21:47:19.502Z,101812.16
2023-02-06T21:51:21.501Z,101810.56
2023-02-06T21:55:24.297Z,101821.63
2023-02-06T21:59:26.766Z,101831.09
2023-02-06T22:03:28.864Z,101821.22
2023-02-06T22:07:30.307Z,101834.16
2023-02-06T22:11:35.471Z,101827.28
2023-02-06T22:15:37.161Z,101829.28
2023-02-06T22:19:38.860Z,101823.66
2023-02-06T22:23:41.651Z,101824.97
2023-02-06T22:27:44.466Z,101825.97
2023-02-06T22:31:46.134Z,101832.28
2023-02-06T22:35:47.647Z,101828.72
2023-02-06T22:39:49.076Z,101829.44
2023-02-06T22:43:52.176Z,101818.78
2023-02-06T22:47:53.618Z,101830.84
2023-02-06T22:51:55.056Z,101827.84
2023-02-06T22:55:56.520Z,101828.28
2023-02-06T22:59:59.320Z,101817.19
2023-02-06T23:04:02.221Z,101818.78
2023-02-06T23:08:03.867Z,101810.00
2023-02-06T23:12:05.720Z,101825.41
2023-02-06T23:16:09.599Z,101830.59
2023-02-06T23:20:11.956Z,101830.78
2023-02-06T23:24:14.189Z,101828.72
2023-02-06T23:28:15.910Z,101833.19
2023-02-06T23:32:18.747Z,101825.47
2023-02-06T23:36:24.867Z,101830.69
2023-02-06T23:40:26.525Z,101838.31
2023-02-06T23:44:27.982Z,101846.72
2023-02-06T23:48:31.363Z,101851.19
2023-02-06T23:52:32.867Z,101853.44
2023-02-06T23:56:34.788Z,101856.09
